sensor_id;sensor_type;location;lat;lon;timestamp;temperature;humidity
9271;DHT22;4673;53.458;9.940;2023-04-24T00:02:21;11.90;97.80
9271;DHT22;4673;53.458;9.940;2023-04-24T00:04:47;11.90;98.00
9271;DHT22;4673;53.458;9.940;2023-04-24T00:07:14;11.90;98.30
9271;DHT22;4673;53.458;9.940;2023-04-24T00:09:42;11.80;98.70
9271;DHT22;4673;53.458;9.940;2023-04-24T00:12:08;11.80;99.20
9271;DHT22;4673;53.458;9.940;2023-04-24T00:14:34;11.80;99.20
9271;DHT22;4673;53.458;9.940;2023-04-24T00:17:00;11.80;99.30
9271;DHT22;4673;53.458;9.940;2023-04-24T00:19:28;11.70;99.40
9271;DHT22;4673;53.458;9.940;2023-04-24T00:21:54;11.70;99.90
9271;DHT22;4673;53.458;9.940;2023-04-24T00:24:20;11.70;99.90
9271;DHT22;4673;53.458;9.940;2023-04-24T00:26:46;11.70;99.90
9271;DHT22;4673;53.458;9.940;2023-04-24T00:29:11;11.60;99.90
9271;DHT22;4673;53.458;9.940;2023-04-24T00:31:37;11.60;99.90
9271;DHT22;4673;53.458;9.940;2023-04-24T00:34:03;11.60;99.90
9271;DHT22;4673;53.458;9.940;2023-04-24T00:36:30;11.60;99.90
9271;DHT22;4673;53.458;9.940;2023-04-24T00:38:56;11.50;99.90
9271;DHT22;4673;53.458;9.940;2023-04-24T00:41:23;11.40;99.90
9271;DHT22;4673;53.458;9.940;2023-04-24T00:43:49;11.30;99.90
9271;DHT22;4673;53.458;9.940;2023-04-24T00:46:16;11.30;99.90
9271;DHT22;4673;53.458;9.940;2023-04-24T00:48:42;11.20;99.90
9271;DHT22;4673;53.458;9.940;2023-04-24T00:51:08;11.10;99.90
9271;DHT22;4673;53.458;9.940;2023-04-24T00:53:34;11.00;99.90
9271;DHT22;4673;53.458;9.940;2023-04-24T00:56:00;10.90;99.90
9271;DHT22;4673;53.458;9.940;2023-04-24T00:58:26;10.90;99.90
9271;DHT22;4673;53.458;9.940;2023-04-24T01:00:53;10.90;99.90
9271;DHT22;4673;53.458;9.940;2023-04-24T01:03:24;10.80;99.90
9271;DHT22;4673;53.458;9.940;2023-04-24T01:05:51;10.80;99.90
9271;DHT22;4673;53.458;9.940;2023-04-24T01:08:18;10.80;99.90
9271;DHT22;4673;53.458;9.940;2023-04-24T01:10:46;10.80;99.90
9271;DHT22;4673;53.458;9.940;2023-04-24T01:13:13;10.80;99.90
9271;DHT22;4673;53.458;9.940;2023-04-24T01:15:38;10.70;99.90
9271;DHT22;4673;53.458;9.940;2023-04-24T01:18:04;10.70;99.90
9271;DHT22;4673;53.458;9.940;2023-04-24T01:20:30;10.70;99.90
9271;DHT22;4673;53.458;9.940;2023-04-24T01:22:57;10.70;99.90
9271;DHT22;4673;53.458;9.940;2023-04-24T01:25:24;10.70;99.90
9271;DHT22;4673;53.458;9.940;2023-04-24T01:27:50;10.80;99.90
9271;DHT22;4673;53.458;9.940;2023-04-24T01:30:16;10.80;99.90
9271;DHT22;4673;53.458;9.940;2023-04-24T01:32:43;10.80;99.90
9271;DHT22;4673;53.458;9.940;2023-04-24T01:35:10;10.90;99.90
9271;DHT22;4673;53.458;9.940;2023-04-24T01:37:36;10.80;99.90
9271;DHT22;4673;53.458;9.940;2023-04-24T01:40:05;10.80;99.90
9271;DHT22;4673;53.458;9.940;2023-04-24T01:42:32;10.90;99.90
9271;DHT22;4673;53.458;9.940;2023-04-24T01:44:58;10.80;99.90
9271;DHT22;4673;53.458;9.940;2023-04-24T01:47:24;10.90;99.90
9271;DHT22;4673;53.458;9.940;2023-04-24T01:49:50;10.90;99.90
9271;DHT22;4673;53.458;9.940;2023-04-24T01:52:16;10.90;99.90
9271;DHT22;4673;53.458;9.940;2023-04-24T01:54:44;10.90;99.90
9271;DHT22;4673;53.458;9.940;2023-04-24T01:57:20;10.80;99.90
9271;DHT22;4673;53.458;9.940;2023-04-24T01:59:46;10.80;99.90
9271;DHT22;4673;53.458;9.940;2023-04-24T02:02:12;10.70;99.90
9271;DHT22;4673;53.458;9.940;2023-04-24T02:04:37;10.60;99.90
9271;DHT22;4673;53.458;9.940;2023-04-24T02:07:03;10.50;99.90
9271;DHT22;4673;53.458;9.940;2023-04-24T02:09:29;10.50;99.90
9271;DHT22;4673;53.458;9.940;2023-04-24T02:11:54;10.50;99.90
9271;DHT22;4673;53.458;9.940;2023-04-24T02:14:20;10.30;99.90
9271;DHT22;4673;53.458;9.940;2023-04-24T02:16:45;10.30;99.90
9271;DHT22;4673;53.458;9.940;2023-04-24T02:19:11;10.20;99.90
9271;DHT22;4673;53.458;9.940;2023-04-24T02:21:36;10.10;99.90
9271;DHT22;4673;53.458;9.940;2023-04-24T02:24:02;10.10;99.90
9271;DHT22;4673;53.458;9.940;2023-04-24T02:26:28;10.00;99.90
9271;DHT22;4673;53.458;9.940;2023-04-24T02:28:53;10.00;99.90
9271;DHT22;4673;53.458;9.940;2023-04-24T02:31:19;10.00;99.90
9271;DHT22;4673;53.458;9.940;2023-04-24T02:33:45;9.90;99.90
9271;DHT22;4673;53.458;9.940;2023-04-24T02:36:10;9.90;99.90
9271;DHT22;4673;53.458;9.940;2023-04-24T02:38:36;9.80;99.90
9271;DHT22;4673;53.458;9.940;2023-04-24T02:41:02;9.80;99.90
9271;DHT22;4673;53.458;9.940;2023-04-24T02:43:31;9.70;99.90
9271;DHT22;4673;53.458;9.940;2023-04-24T02:45:57;9.70;99.90
9271;DHT22;4673;53.458;9.940;2023-04-24T02:48:22;9.60;99.90
9271;DHT22;4673;53.458;9.940;2023-04-24T02:50:49;9.60;99.90
9271;DHT22;4673;53.458;9.940;2023-04-24T02:53:15;9.60;99.90
9271;DHT22;4673;53.458;9.940;2023-04-24T02:55:41;9.60;99.90
9271;DHT22;4673;53.458;9.940;2023-04-24T02:58:07;9.60;99.90
9271;DHT22;4673;53.458;9.940;2023-04-24T03:00:33;9.60;99.90
9271;DHT22;4673;53.458;9.940;2023-04-24T03:02:59;9.50;99.90
9271;DHT22;4673;53.458;9.940;2023-04-24T03:05:25;9.50;99.90
9271;DHT22;4673;53.458;9.940;2023-04-24T03:07:50;9.40;99.90
9271;DHT22;4673;53.458;9.940;2023-04-24T03:10:18;9.40;99.90
9271;DHT22;4673;53.458;9.940;2023-04-24T03:12:43;9.40;99.90
9271;DHT22;4673;53.458;9.940;2023-04-24T03:15:10;9.40;99.90
9271;DHT22;4673;53.458;9.940;2023-04-24T03:17:35;9.30;99.90
9271;DHT22;4673;53.458;9.940;2023-04-24T03:20:02;9.30;99.90
9271;DHT22;4673;53.458;9.940;2023-04-24T03:22:30;9.20;99.90
9271;DHT22;4673;53.458;9.940;2023-04-24T03:24:57;9.20;99.90
9271;DHT22;4673;53.458;9.940;2023-04-24T03:27:23;9.20;99.90
9271;DHT22;4673;53.458;9.940;2023-04-24T03:29:49;9.10;99.90
9271;DHT22;4673;53.458;9.940;2023-04-24T03:32:19;9.10;99.90
9271;DHT22;4673;53.458;9.940;2023-04-24T03:34:44;9.00;99.90
9271;DHT22;4673;53.458;9.940;2023-04-24T03:37:10;9.00;99.90
9271;DHT22;4673;53.458;9.940;2023-04-24T03:39:36;9.00;99.90
9271;DHT22;4673;53.458;9.940;2023-04-24T03:42:01;9.00;99.90
9271;DHT22;4673;53.458;9.940;2023-04-24T03:44:27;8.90;99.90
9271;DHT22;4673;53.458;9.940;2023-04-24T03:46:53;8.90;99.90
9271;DHT22;4673;53.458;9.940;2023-04-24T03:49:19;8.80;99.90
9271;DHT22;4673;53.458;9.940;2023-04-24T03:51:44;8.80;99.90
9271;DHT22;4673;53.458;9.940;2023-04-24T03:54:10;8.80;99.90
9271;DHT22;4673;53.458;9.940;2023-04-24T03:56:36;8.70;99.90
9271;DHT22;4673;53.458;9.940;2023-04-24T03:59:01;8.70;99.90
9271;DHT22;4673;53.458;9.940;2023-04-24T04:01:27;8.70;99.90
9271;DHT22;4673;53.458;9.940;2023-04-24T04:03:53;8.70;99.90
9271;DHT22;4673;53.458;9.940;2023-04-24T04:06:19;8.70;99.90
9271;DHT22;4673;53.458;9.940;2023-04-24T04:08:46;8.70;99.90
9271;DHT22;4673;53.458;9.940;2023-04-24T04:11:12;8.70;99.90
9271;DHT22;4673;53.458;9.940;2023-04-24T04:13:38;8.60;99.90
9271;DHT22;4673;53.458;9.940;2023-04-24T04:16:03;8.60;99.90
9271;DHT22;4673;53.458;9.940;2023-04-24T04:18:29;8.60;99.90
9271;DHT22;4673;53.458;9.940;2023-04-24T04:20:54;8.60;99.90
9271;DHT22;4673;53.458;9.940;2023-04-24T04:23:22;8.60;99.90
9271;DHT22;4673;53.458;9.940;2023-04-24T04:25:48;8.50;99.90
9271;DHT22;4673;53.458;9.940;2023-04-24T04:28:13;8.50;99.90
9271;DHT22;4673;53.458;9.940;2023-04-24T04:30:39;8.60;99.90
9271;DHT22;4673;53.458;9.940;2023-04-24T04:33:05;8.60;99.90
9271;DHT22;4673;53.458;9.940;2023-04-24T04:35:31;8.60;99.90
9271;DHT22;4673;53.458;9.940;2023-04-24T04:37:56;8.70;99.90
9271;DHT22;4673;53.458;9.940;2023-04-24T04:40:24;8.70;99.90
9271;DHT22;4673;53.458;9.940;2023-04-24T04:42:50;8.70;99.90
9271;DHT22;4673;53.458;9.940;2023-04-24T04:45:18;8.90;99.70
9271;DHT22;4673;53.458;9.940;2023-04-24T04:47:44;9.10;99.90
9271;DHT22;4673;53.458;9.940;2023-04-24T04:50:10;9.20;99.30
9271;DHT22;4673;53.458;9.940;2023-04-24T04:52:36;9.50;98.20
9271;DHT22;4673;53.458;9.940;2023-04-24T04:55:02;9.60;96.80
9271;DHT22;4673;53.458;9.940;2023-04-24T04:57:28;9.60;95.90
9271;DHT22;4673;53.458;9.940;2023-04-24T04:59:54;9.70;95.10
9271;DHT22;4673;53.458;9.940;2023-04-24T05:02:20;9.70;94.20
9271;DHT22;4673;53.458;9.940;2023-04-24T05:04:46;9.80;94.10
9271;DHT22;4673;53.458;9.940;2023-04-24T05:07:11;10.00;94.50
9271;DHT22;4673;53.458;9.940;2023-04-24T05:09:37;10.60;95.30
9271;DHT22;4673;53.458;9.940;2023-04-24T05:12:03;11.50;93.00
9271;DHT22;4673;53.458;9.940;2023-04-24T05:14:29;12.20;87.60
9271;DHT22;4673;53.458;9.940;2023-04-24T05:16:54;12.60;83.30
9271;DHT22;4673;53.458;9.940;2023-04-24T05:19:20;12.90;79.10
9271;DHT22;4673;53.458;9.940;2023-04-24T05:21:46;13.20;79.50
9271;DHT22;4673;53.458;9.940;2023-04-24T05:24:11;13.60;76.40
9271;DHT22;4673;53.458;9.940;2023-04-24T05:26:37;13.90;74.90
9271;DHT22;4673;53.458;9.940;2023-04-24T05:29:03;14.10;71.80
9271;DHT22;4673;53.458;9.940;2023-04-24T05:31:29;14.40;69.10
9271;DHT22;4673;53.458;9.940;2023-04-24T05:33:55;14.40;68.80
9271;DHT22;4673;53.458;9.940;2023-04-24T05:36:20;14.60;68.90
9271;DHT22;4673;53.458;9.940;2023-04-24T05:38:46;14.80;67.00
9271;DHT22;4673;53.458;9.940;2023-04-24T05:41:12;14.90;65.10
9271;DHT22;4673;53.458;9.940;2023-04-24T05:43:37;14.50;63.80
9271;DHT22;4673;53.458;9.940;2023-04-24T05:46:03;14.20;64.50
9271;DHT22;4673;53.458;9.940;2023-04-24T05:48:29;14.10;65.10
9271;DHT22;4673;53.458;9.940;2023-04-24T05:50:55;13.80;66.50
9271;DHT22;4673;53.458;9.940;2023-04-24T05:53:20;13.80;65.70
9271;DHT22;4673;53.458;9.940;2023-04-24T05:55:47;13.90;66.60
9271;DHT22;4673;53.458;9.940;2023-04-24T05:58:13;14.30;65.60
9271;DHT22;4673;53.458;9.940;2023-04-24T06:00:39;14.70;63.90
9271;DHT22;4673;53.458;9.940;2023-04-24T06:03:08;14.90;63.30
9271;DHT22;4673;53.458;9.940;2023-04-24T06:05:34;14.70;61.20
9271;DHT22;4673;53.458;9.940;2023-04-24T06:08:00;14.50;61.80
9271;DHT22;4673;53.458;9.940;2023-04-24T06:10:25;14.50;61.80
9271;DHT22;4673;53.458;9.940;2023-04-24T06:12:51;14.20;60.90
9271;DHT22;4673;53.458;9.940;2023-04-24T06:15:17;14.10;63.00
9271;DHT22;4673;53.458;9.940;2023-04-24T06:17:42;14.30;62.90
9271;DHT22;4673;53.458;9.940;2023-04-24T06:20:08;14.30;63.30
9271;DHT22;4673;53.458;9.940;2023-04-24T06:22:36;13.90;62.40
9271;DHT22;4673;53.458;9.940;2023-04-24T06:25:02;13.50;63.80
9271;DHT22;4673;53.458;9.940;2023-04-24T06:27:27;13.40;64.80
9271;DHT22;4673;53.458;9.940;2023-04-24T06:29:53;13.40;65.20
9271;DHT22;4673;53.458;9.940;2023-04-24T06:32:23;13.70;64.70
9271;DHT22;4673;53.458;9.940;2023-04-24T06:34:51;13.80;63.60
9271;DHT22;4673;53.458;9.940;2023-04-24T06:37:18;13.70;64.40
9271;DHT22;4673;53.458;9.940;2023-04-24T06:39:44;13.80;64.80
9271;DHT22;4673;53.458;9.940;2023-04-24T06:42:10;13.70;63.90
9271;DHT22;4673;53.458;9.940;2023-04-24T06:44:35;13.70;64.20
9271;DHT22;4673;53.458;9.940;2023-04-24T06:47:06;13.70;63.90
9271;DHT22;4673;53.458;9.940;2023-04-24T06:49:34;13.60;63.60
9271;DHT22;4673;53.458;9.940;2023-04-24T06:52:00;13.50;64.50
9271;DHT22;4673;53.458;9.940;2023-04-24T06:54:25;13.40;63.80
9271;DHT22;4673;53.458;9.940;2023-04-24T06:56:51;13.40;64.50
9271;DHT22;4673;53.458;9.940;2023-04-24T06:59:17;13.20;65.70
9271;DHT22;4673;53.458;9.940;2023-04-24T07:01:43;13.20;65.00
9271;DHT22;4673;53.458;9.940;2023-04-24T07:04:08;13.50;66.20
9271;DHT22;4673;53.458;9.940;2023-04-24T07:06:34;13.80;64.80
9271;DHT22;4673;53.458;9.940;2023-04-24T07:09:01;13.80;64.40
9271;DHT22;4673;53.458;9.940;2023-04-24T07:11:27;13.70;63.00
9271;DHT22;4673;53.458;9.940;2023-04-24T07:13:55;13.60;63.40
9271;DHT22;4673;53.458;9.940;2023-04-24T07:16:20;13.70;62.40
9271;DHT22;4673;53.458;9.940;2023-04-24T07:18:46;13.30;62.50
9271;DHT22;4673;53.458;9.940;2023-04-24T07:21:12;13.20;63.80
9271;DHT22;4673;53.458;9.940;2023-04-24T07:23:38;13.40;65.00
9271;DHT22;4673;53.458;9.940;2023-04-24T07:26:04;13.60;63.80
9271;DHT22;4673;53.458;9.940;2023-04-24T07:28:29;13.60;62.50
9271;DHT22;4673;53.458;9.940;2023-04-24T07:30:58;13.40;61.60
9271;DHT22;4673;53.458;9.940;2023-04-24T07:33:28;13.40;62.40
9271;DHT22;4673;53.458;9.940;2023-04-24T07:35:54;13.20;63.10
9271;DHT22;4673;53.458;9.940;2023-04-24T07:38:20;13.30;63.20
9271;DHT22;4673;53.458;9.940;2023-04-24T07:40:47;13.40;62.80
9271;DHT22;4673;53.458;9.940;2023-04-24T07:43:13;13.50;61.90
9271;DHT22;4673;53.458;9.940;2023-04-24T07:45:39;13.60;61.60
9271;DHT22;4673;53.458;9.940;2023-04-24T07:48:05;13.60;60.90
9271;DHT22;4673;53.458;9.940;2023-04-24T07:50:31;13.70;62.10
9271;DHT22;4673;53.458;9.940;2023-04-24T07:52:57;14.10;61.50
9271;DHT22;4673;53.458;9.940;2023-04-24T07:57:49;14.70;58.00
9271;DHT22;4673;53.458;9.940;2023-04-24T08:00:15;14.60;58.00
9271;DHT22;4673;53.458;9.940;2023-04-24T08:02:41;14.80;57.10
9271;DHT22;4673;53.458;9.940;2023-04-24T08:05:06;14.90;55.90
9271;DHT22;4673;53.458;9.940;2023-04-24T08:07:32;14.70;56.30
9271;DHT22;4673;53.458;9.940;2023-04-24T08:09:58;14.40;56.60
9271;DHT22;4673;53.458;9.940;2023-04-24T08:12:25;14.40;57.00
9271;DHT22;4673;53.458;9.940;2023-04-24T08:14:50;14.20;57.50
9271;DHT22;4673;53.458;9.940;2023-04-24T08:17:17;14.20;57.70
9271;DHT22;4673;53.458;9.940;2023-04-24T08:19:43;14.10;57.90
9271;DHT22;4673;53.458;9.940;2023-04-24T08:22:13;14.00;59.20
9271;DHT22;4673;53.458;9.940;2023-04-24T08:24:38;13.90;59.00
9271;DHT22;4673;53.458;9.940;2023-04-24T08:27:04;13.80;59.10
9271;DHT22;4673;53.458;9.940;2023-04-24T08:29:30;14.00;59.50
9271;DHT22;4673;53.458;9.940;2023-04-24T08:31:56;14.10;57.90
9271;DHT22;4673;53.458;9.940;2023-04-24T08:34:21;14.30;57.00
9271;DHT22;4673;53.458;9.940;2023-04-24T08:36:47;14.20;56.60
9271;DHT22;4673;53.458;9.940;2023-04-24T08:39:14;14.30;57.00
9271;DHT22;4673;53.458;9.940;2023-04-24T08:41:42;14.20;57.20
9271;DHT22;4673;53.458;9.940;2023-04-24T08:44:11;14.60;57.30
9271;DHT22;4673;53.458;9.940;2023-04-24T08:46:39;14.80;55.40
9271;DHT22;4673;53.458;9.940;2023-04-24T08:49:06;14.80;54.90
9271;DHT22;4673;53.458;9.940;2023-04-24T08:51:31;14.70;54.00
9271;DHT22;4673;53.458;9.940;2023-04-24T08:53:58;14.70;54.60
9271;DHT22;4673;53.458;9.940;2023-04-24T08:56:24;14.70;55.60
9271;DHT22;4673;53.458;9.940;2023-04-24T08:58:51;15.00;55.40
9271;DHT22;4673;53.458;9.940;2023-04-24T09:01:21;15.20;54.00
9271;DHT22;4673;53.458;9.940;2023-04-24T09:03:49;15.30;53.90
9271;DHT22;4673;53.458;9.940;2023-04-24T09:06:16;15.10;52.50
9271;DHT22;4673;53.458;9.940;2023-04-24T09:08:43;15.10;53.00
9271;DHT22;4673;53.458;9.940;2023-04-24T09:11:11;15.00;52.50
9271;DHT22;4673;53.458;9.940;2023-04-24T09:13:37;15.00;52.00
9271;DHT22;4673;53.458;9.940;2023-04-24T09:16:03;14.80;53.00
9271;DHT22;4673;53.458;9.940;2023-04-24T09:18:29;14.60;54.10
9271;DHT22;4673;53.458;9.940;2023-04-24T09:21:03;14.50;54.70
9271;DHT22;4673;53.458;9.940;2023-04-24T09:23:31;14.40;54.30
9271;DHT22;4673;53.458;9.940;2023-04-24T09:25:59;14.30;54.90
9271;DHT22;4673;53.458;9.940;2023-04-24T09:28:32;14.20;55.40
9271;DHT22;4673;53.458;9.940;2023-04-24T09:31:03;14.20;56.00
9271;DHT22;4673;53.458;9.940;2023-04-24T09:33:29;14.20;56.40
9271;DHT22;4673;53.458;9.940;2023-04-24T09:35:54;14.10;56.00
9271;DHT22;4673;53.458;9.940;2023-04-24T09:38:36;14.00;56.20
9271;DHT22;4673;53.458;9.940;2023-04-24T09:41:04;14.10;56.80
9271;DHT22;4673;53.458;9.940;2023-04-24T09:43:30;14.10;56.50
9271;DHT22;4673;53.458;9.940;2023-04-24T09:45:58;14.10;57.10
9271;DHT22;4673;53.458;9.940;2023-04-24T09:48:34;14.20;57.00
9271;DHT22;4673;53.458;9.940;2023-04-24T09:51:05;14.20;57.00
9271;DHT22;4673;53.458;9.940;2023-04-24T09:53:36;14.20;56.40
9271;DHT22;4673;53.458;9.940;2023-04-24T09:56:06;14.50;56.50
9271;DHT22;4673;53.458;9.940;2023-04-24T09:58:32;14.50;55.60
9271;DHT22;4673;53.458;9.940;2023-04-24T10:01:01;14.20;55.30
9271;DHT22;4673;53.458;9.940;2023-04-24T10:03:29;14.00;57.60
9271;DHT22;4673;53.458;9.940;2023-04-24T10:05:59;14.10;57.80
9271;DHT22;4673;53.458;9.940;2023-04-24T10:08:25;14.00;58.00
9271;DHT22;4673;53.458;9.940;2023-04-24T10:10:52;14.10;58.00
9271;DHT22;4673;53.458;9.940;2023-04-24T10:13:18;14.10;58.20
9271;DHT22;4673;53.458;9.940;2023-04-24T10:15:44;14.20;57.50
9271;DHT22;4673;53.458;9.940;2023-04-24T10:18:10;14.30;57.40
9271;DHT22;4673;53.458;9.940;2023-04-24T10:20:38;14.20;57.00
9271;DHT22;4673;53.458;9.940;2023-04-24T10:23:05;13.80;58.20
9271;DHT22;4673;53.458;9.940;2023-04-24T10:25:32;13.60;58.70
9271;DHT22;4673;53.458;9.940;2023-04-24T10:27:59;13.50;60.70
9271;DHT22;4673;53.458;9.940;2023-04-24T10:30:27;13.40;60.30
9271;DHT22;4673;53.458;9.940;2023-04-24T10:32:53;13.30;60.40
9271;DHT22;4673;53.458;9.940;2023-04-24T10:35:19;13.40;59.50
9271;DHT22;4673;53.458;9.940;2023-04-24T10:38:12;13.30;59.30
9271;DHT22;4673;53.458;9.940;2023-04-24T10:40:38;13.50;59.60
9271;DHT22;4673;53.458;9.940;2023-04-24T10:43:05;13.70;60.30
9271;DHT22;4673;53.458;9.940;2023-04-24T10:45:33;14.10;58.00
9271;DHT22;4673;53.458;9.940;2023-04-24T10:50:28;14.80;55.70
9271;DHT22;4673;53.458;9.940;2023-04-24T10:53:07;15.20;54.60
9271;DHT22;4673;53.458;9.940;2023-04-24T10:55:50;15.40;51.80
9271;DHT22;4673;53.458;9.940;2023-04-24T10:58:23;15.60;51.40
9271;DHT22;4673;53.458;9.940;2023-04-24T11:00:59;15.90;51.00
9271;DHT22;4673;53.458;9.940;2023-04-24T11:03:26;16.10;47.80
9271;DHT22;4673;53.458;9.940;2023-04-24T11:05:59;16.00;47.30
9271;DHT22;4673;53.458;9.940;2023-04-24T11:08:45;15.80;47.20
9271;DHT22;4673;53.458;9.940;2023-04-24T11:11:13;15.60;47.80
9271;DHT22;4673;53.458;9.940;2023-04-24T11:16:21;15.00;49.50
9271;DHT22;4673;53.458;9.940;2023-04-24T11:18:51;14.70;50.70
9271;DHT22;4673;53.458;9.940;2023-04-24T11:21:20;14.50;52.70
9271;DHT22;4673;53.458;9.940;2023-04-24T11:23:46;15.00;53.90
9271;DHT22;4673;53.458;9.940;2023-04-24T11:26:17;15.30;51.00
9271;DHT22;4673;53.458;9.940;2023-04-24T11:28:47;15.60;49.40
9271;DHT22;4673;53.458;9.940;2023-04-24T11:31:35;15.60;47.30
9271;DHT22;4673;53.458;9.940;2023-04-24T11:34:13;15.70;47.20
9271;DHT22;4673;53.458;9.940;2023-04-24T11:36:40;15.80;46.00
9271;DHT22;4673;53.458;9.940;2023-04-24T11:39:07;15.90;45.40
9271;DHT22;4673;53.458;9.940;2023-04-24T11:41:34;16.00;44.10
9271;DHT22;4673;53.458;9.940;2023-04-24T11:44:01;15.80;43.50
9271;DHT22;4673;53.458;9.940;2023-04-24T11:46:29;15.30;44.60
9271;DHT22;4673;53.458;9.940;2023-04-24T11:48:56;15.20;44.90
9271;DHT22;4673;53.458;9.940;2023-04-24T11:51:26;15.10;46.40
9271;DHT22;4673;53.458;9.940;2023-04-24T11:53:53;15.30;47.20
9271;DHT22;4673;53.458;9.940;2023-04-24T11:56:21;15.60;45.60
9271;DHT22;4673;53.458;9.940;2023-04-24T11:58:47;15.60;44.30
9271;DHT22;4673;53.458;9.940;2023-04-24T12:01:13;15.90;45.10
9271;DHT22;4673;53.458;9.940;2023-04-24T12:03:39;16.20;43.90
9271;DHT22;4673;53.458;9.940;2023-04-24T12:06:10;16.50;42.60
9271;DHT22;4673;53.458;9.940;2023-04-24T12:08:36;16.30;40.20
9271;DHT22;4673;53.458;9.940;2023-04-24T12:11:06;16.20;41.20
9271;DHT22;4673;53.458;9.940;2023-04-24T12:13:35;16.40;41.20
9271;DHT22;4673;53.458;9.940;2023-04-24T12:16:02;16.40;40.70
9271;DHT22;4673;53.458;9.940;2023-04-24T12:18:28;16.20;39.70
9271;DHT22;4673;53.458;9.940;2023-04-24T12:20:54;16.20;41.10
9271;DHT22;4673;53.458;9.940;2023-04-24T12:23:35;16.00;40.40
9271;DHT22;4673;53.458;9.940;2023-04-24T12:26:04;15.80;42.40
9271;DHT22;4673;53.458;9.940;2023-04-24T12:28:37;15.20;43.60
9271;DHT22;4673;53.458;9.940;2023-04-24T12:31:03;15.10;44.80
9271;DHT22;4673;53.458;9.940;2023-04-24T12:33:33;14.90;45.60
9271;DHT22;4673;53.458;9.940;2023-04-24T12:35:58;14.80;46.60
9271;DHT22;4673;53.458;9.940;2023-04-24T12:38:27;14.60;46.30
9271;DHT22;4673;53.458;9.940;2023-04-24T12:43:32;14.10;49.20
9271;DHT22;4673;53.458;9.940;2023-04-24T12:45:57;13.90;51.00
9271;DHT22;4673;53.458;9.940;2023-04-24T12:48:25;13.80;51.90
9271;DHT22;4673;53.458;9.940;2023-04-24T12:50:51;13.50;53.40
9271;DHT22;4673;53.458;9.940;2023-04-24T12:53:17;13.10;55.10
9271;DHT22;4673;53.458;9.940;2023-04-24T12:55:43;13.00;56.10
9271;DHT22;4673;53.458;9.940;2023-04-24T12:58:09;12.90;56.50
9271;DHT22;4673;53.458;9.940;2023-04-24T13:00:35;12.80;56.20
9271;DHT22;4673;53.458;9.940;2023-04-24T13:03:01;12.70;57.30
9271;DHT22;4673;53.458;9.940;2023-04-24T13:05:27;12.60;57.30
9271;DHT22;4673;53.458;9.940;2023-04-24T13:07:53;12.70;58.20
9271;DHT22;4673;53.458;9.940;2023-04-24T13:10:18;12.70;59.50
9271;DHT22;4673;53.458;9.940;2023-04-24T13:12:44;12.70;61.40
9271;DHT22;4673;53.458;9.940;2023-04-24T13:15:11;12.70;61.40
9271;DHT22;4673;53.458;9.940;2023-04-24T13:17:37;12.60;62.00
9271;DHT22;4673;53.458;9.940;2023-04-24T13:20:03;12.70;62.90
9271;DHT22;4673;53.458;9.940;2023-04-24T13:22:29;12.80;62.50
9271;DHT22;4673;53.458;9.940;2023-04-24T13:24:55;12.90;60.90
9271;DHT22;4673;53.458;9.940;2023-04-24T13:27:21;12.90;60.90
9271;DHT22;4673;53.458;9.940;2023-04-24T13:29:47;12.90;60.50
9271;DHT22;4673;53.458;9.940;2023-04-24T13:32:12;13.00;59.60
9271;DHT22;4673;53.458;9.940;2023-04-24T13:34:38;13.10;60.40
9271;DHT22;4673;53.458;9.940;2023-04-24T13:37:04;12.90;59.80
9271;DHT22;4673;53.458;9.940;2023-04-24T13:39:31;12.80;59.00
9271;DHT22;4673;53.458;9.940;2023-04-24T13:41:57;12.70;59.20
9271;DHT22;4673;53.458;9.940;2023-04-24T13:44:23;12.70;59.50
9271;DHT22;4673;53.458;9.940;2023-04-24T13:46:51;12.80;59.70
9271;DHT22;4673;53.458;9.940;2023-04-24T13:49:18;12.80;60.00
9271;DHT22;4673;53.458;9.940;2023-04-24T13:51:44;12.70;60.40
9271;DHT22;4673;53.458;9.940;2023-04-24T13:54:09;12.80;62.00
9271;DHT22;4673;53.458;9.940;2023-04-24T13:56:35;12.60;60.90
9271;DHT22;4673;53.458;9.940;2023-04-24T13:59:01;12.50;61.50
9271;DHT22;4673;53.458;9.940;2023-04-24T14:01:26;12.60;62.70
9271;DHT22;4673;53.458;9.940;2023-04-24T14:03:53;12.90;63.10
9271;DHT22;4673;53.458;9.940;2023-04-24T14:06:19;13.40;62.80
9271;DHT22;4673;53.458;9.940;2023-04-24T14:08:46;13.70;59.30
9271;DHT22;4673;53.458;9.940;2023-04-24T14:11:11;14.00;57.30
9271;DHT22;4673;53.458;9.940;2023-04-24T14:13:38;14.20;55.50
9271;DHT22;4673;53.458;9.940;2023-04-24T14:16:04;14.20;54.60
9271;DHT22;4673;53.458;9.940;2023-04-24T14:18:30;14.10;54.10
9271;DHT22;4673;53.458;9.940;2023-04-24T14:20:56;13.90;53.90
9271;DHT22;4673;53.458;9.940;2023-04-24T14:23:21;14.00;54.60
9271;DHT22;4673;53.458;9.940;2023-04-24T14:25:47;13.90;54.30
9271;DHT22;4673;53.458;9.940;2023-04-24T14:28:16;13.60;55.10
9271;DHT22;4673;53.458;9.940;2023-04-24T14:30:42;13.20;56.40
9271;DHT22;4673;53.458;9.940;2023-04-24T14:33:08;13.10;58.10
9271;DHT22;4673;53.458;9.940;2023-04-24T14:35:34;12.90;57.70
9271;DHT22;4673;53.458;9.940;2023-04-24T14:38:00;12.90;60.10
9271;DHT22;4673;53.458;9.940;2023-04-24T14:40:26;12.90;62.20
9271;DHT22;4673;53.458;9.940;2023-04-24T14:42:52;12.90;65.20
9271;DHT22;4673;53.458;9.940;2023-04-24T14:45:18;12.70;67.20
9271;DHT22;4673;53.458;9.940;2023-04-24T14:47:44;12.40;70.90
9271;DHT22;4673;53.458;9.940;2023-04-24T14:50:10;12.20;74.10
9271;DHT22;4673;53.458;9.940;2023-04-24T14:52:37;12.10;75.90
9271;DHT22;4673;53.458;9.940;2023-04-24T14:55:04;11.90;78.50
9271;DHT22;4673;53.458;9.940;2023-04-24T14:57:30;11.80;80.40
9271;DHT22;4673;53.458;9.940;2023-04-24T14:59:55;11.70;82.00
9271;DHT22;4673;53.458;9.940;2023-04-24T15:02:21;11.60;83.50
9271;DHT22;4673;53.458;9.940;2023-04-24T15:04:47;11.60;84.80
9271;DHT22;4673;53.458;9.940;2023-04-24T15:07:12;11.50;86.30
9271;DHT22;4673;53.458;9.940;2023-04-24T15:09:38;11.30;86.10
9271;DHT22;4673;53.458;9.940;2023-04-24T15:12:03;11.10;87.90
9271;DHT22;4673;53.458;9.940;2023-04-24T15:14:29;11.00;89.30
9271;DHT22;4673;53.458;9.940;2023-04-24T15:16:55;11.00;90.70
9271;DHT22;4673;53.458;9.940;2023-04-24T15:19:21;10.90;91.10
9271;DHT22;4673;53.458;9.940;2023-04-24T15:21:46;10.70;91.10
9271;DHT22;4673;53.458;9.940;2023-04-24T15:24:12;10.70;92.20
9271;DHT22;4673;53.458;9.940;2023-04-24T15:26:38;10.60;92.70
9271;DHT22;4673;53.458;9.940;2023-04-24T15:29:03;10.50;92.40
9271;DHT22;4673;53.458;9.940;2023-04-24T15:31:29;10.50;92.90
9271;DHT22;4673;53.458;9.940;2023-04-24T15:33:55;10.50;92.80
9271;DHT22;4673;53.458;9.940;2023-04-24T15:36:20;10.40;92.70
9271;DHT22;4673;53.458;9.940;2023-04-24T15:38:47;10.40;92.10
9271;DHT22;4673;53.458;9.940;2023-04-24T15:41:13;10.40;91.80
9271;DHT22;4673;53.458;9.940;2023-04-24T15:43:38;10.40;92.10
9271;DHT22;4673;53.458;9.940;2023-04-24T15:46:07;10.30;91.00
9271;DHT22;4673;53.458;9.940;2023-04-24T15:48:32;10.20;90.50
9271;DHT22;4673;53.458;9.940;2023-04-24T15:50:58;9.90;90.20
9271;DHT22;4673;53.458;9.940;2023-04-24T15:53:24;9.80;91.00
9271;DHT22;4673;53.458;9.940;2023-04-24T15:55:51;9.60;91.00
9271;DHT22;4673;53.458;9.940;2023-04-24T15:58:19;9.50;92.30
9271;DHT22;4673;53.458;9.940;2023-04-24T16:00:45;9.40;91.30
9271;DHT22;4673;53.458;9.940;2023-04-24T16:03:12;9.40;92.30
9271;DHT22;4673;53.458;9.940;2023-04-24T16:05:38;9.30;92.50
9271;DHT22;4673;53.458;9.940;2023-04-24T16:08:04;9.30;93.80
9271;DHT22;4673;53.458;9.940;2023-04-24T16:10:30;9.20;94.20
9271;DHT22;4673;53.458;9.940;2023-04-24T16:12:56;9.20;95.20